Tiempo atmosférico en la estación meteorológica de El Bodón Base Aérea, Salamanca (805 m.)



Fecha
DESCASC
Temp. máxima en grados centígrados (hora)
DESCASC
Temp. mínima en grados centígrados (hora)
DESCASC
Temp. media en grados centígrados
DESCASC
Racha de viento máxima en m/sg (hora)
DESCASC
Velocidad máxima media en intervalos de 10 minutos(hora)
DESCASC
Precipitaciones diarias en mm
DESCASC
Precipitaciones de 00:00 a 06:00 en mm
DESCASC
Precipitaciones de 06:00 a 12:00 en mm
DESCASC
Precipitaciones de 12:00 a 18:00 en mm
DESCASC
Precipitaciones de 18:00 a 24:00 en mm
DESCASC
27-10-2019 20.6 (14:40) 8.2 (00:00) 14.4 10.28 (12:30) 6.11 (14:00) 0 0 0 0 0
26-10-2019 20.5 (16:40) 11.1 (00:00) 15.8 11.39 (13:20) 6.94 (13:20) 0 0 0 0 0
25-10-2019 19.4 (16:50) 5.9 (00:00) 12.6 8.89 (16:10) 6.39 (16:10) 0 0 0 0 0
01-11-2019 18.8 (15:50) 13.2 (00:00) 16 14.72 (18:40) 8.06 (16:10) 16.6 0 2 1 13.6
31-10-2019 18.3 (15:20) 10.3 (08:10) 14.3 6.39 (22:40) 3.89 (22:40) 0.4 0 0 0.2 0.2
29-10-2019 18.2 (14:00) 10.8 (00:00) 14.5 6.39 (15:20) 5 (15:20) 0.6 0.6 0 0 0
18-10-2019 17.8 (17:10) 10.7 (00:00) 14.2 8.89 (00:10) 6.11 (00:10) 0.6 0.4 0.2 0 0
28-10-2019 17 (15:00) 10.8 (00:00) 13.9 10.56 (09:50) 5.83 (09:50) 0 0 0 0 0
02-11-2019 15.9 (14:50) 10.8 (00:00) 13.3 11.67 (15:30) 7.22 (15:20) 2.6 2.2 0 0 0.4
30-10-2019 15.4 (13:40) 11.8 (00:00) 13.6 8.06 (13:40) 5.28 (16:50) 4.6 0 1.6 3 0
24-10-2019 15.2 (15:20) 5.3 (00:00) 10.3 5.83 (01:30) 3.61 (01:30) 0.2 0 0 0.2 0
13-11-2019 15.1 (15:00) 7.4 (00:00) 11.3 10.56 (14:50) 7.22 (15:00) 1.2 1 0.2 0 0
04-11-2019 13.8 (14:00) 7.2 (00:00) 10.5 15.56 (14:40) 8.89 (11:50) 0.8 0.2 0 0.4 0.2
03-11-2019 13.4 (17:00) 10.3 (00:00) 11.8 13.89 (07:00) 8.89 (10:30) 0.4 0 0 0 0.4
11-11-2019 12.9 (15:20) 4.9 (23:10) 8.9 12.22 (14:40) 8.61 (14:40) 0.4 0.2 0.2 0 0
19-10-2019 12.8 (19:20) 8.1 (00:00) 10.5 14.17 (11:20) 10.28 (11:40) 12.2 0 0 7 5.2
22-10-2019 12.2 (16:20) 0.4 (05:20) 6.3 12.5 (19:50) 6.39 (19:50) 0.6 0 0 0 0.6
05-11-2019 12.2 (15:50) 6.2 (00:00) 9.2 13.33 (15:30) 8.89 (15:30) 0.2 0 0.2 0 0
20-10-2019 11.9 (16:40) 6.3 (00:00) 9.1 9.17 (12:30) 6.39 (11:30) 5.4 0.6 1.2 3.6 0
21-10-2019 11.4 (13:00) 1.1 (00:00) 6.2 5 (17:50) 3.61 (17:50) 1 0 0 1 0
06-11-2019 10.8 (14:30) 5 (00:00) 7.9 7.78 (22:00) 5.56 (22:00) 1 0 0 0 1
12-11-2019 10.7 (23:40) 2.5 (00:00) 6.6 7.5 (23:50) 5 (13:30) 0 0 0 0 0
07-11-2019 10.6 (02:50) 3.9 (00:00) 7.3 13.06 (12:10) 8.06 (18:50) 1 0.2 0 0.6 0.2
09-11-2019 10.3 (12:50) 1 (00:00) 5.7 10 (14:50) 6.94 (14:00) 2.8 0 0.4 2.4 0
08-11-2019 9 (14:50) 1.7 (07:30) 5.4 10 (13:40) 6.67 (14:40) 0.2 0.2 0 0 0
14-11-2019 8.3 (02:30) 2.8 (00:00) 5.6 16.11 (13:50) 9.72 (13:50) 3.4 1 0.6 1.4 0.4
23-10-2019 8.1 (13:40) 6.5 (00:00) 7.3 10.28 (16:30) 6.67 (16:10) 12.6 3 4.8 3.6 1.2
16-11-2019 7.8 (16:40) -0.9 (-00:0) 3.5 7.5 (16:50) 4.72 (16:50) 0 0 0 0 0
10-11-2019 6.9 (11:20) 3.5 (00:00) 5.2 10 (16:10) 6.67 (17:30) 0.6 0 0 0.2 0.4
15-11-2019 6.3 (14:50) 1 (00:00) 3.7 13.06 (15:30) 8.61 (15:30) 0 0 0 0 0

Gráficas

Temp. máximas Temp. mínimas Temp. medias Precipitaciones Rachas de viento máximas Velocidades máximas media en intervalos de 10 minutos

Datos horarios

Fecha y hora oficial Temperatura (ºC) Velocidad del viento (km/h) Dirección del viento Racha (km/h) Dirección de racha Precipitación (mm) Presión (hPa) Tendencia (hPa) Humedad (%)
2019-11-16 23:00:00 3 0 Calma 12 Oeste 0 -- -- 87
2019-11-16 22:00:00 3.7 8 Noroeste 13 Oeste 0 -- -- 83
2019-11-16 21:00:00 4.7 8 Oeste 14 Oeste 0 -- -- 79
2019-11-16 20:00:00 5 9 Noroeste 20 Noroeste 0 -- -- 77
2019-11-16 19:00:00 5.3 8 Noroeste 21 Oeste 0 -- -- 75
2019-11-16 18:00:00 6 6 Noroeste 26 Noroeste 0 -- -- 72
2019-11-16 17:00:00 7.2 17 Noroeste 27 Noroeste 0 -- -- 67
2019-11-16 16:00:00 7.3 9 Noroeste 16 Noroeste 0 -- -- 68
2019-11-16 15:00:00 6.4 9 Noroeste 21 Noroeste 0 -- -- 74
2019-11-16 14:00:00 5.8 5 Norte 19 Oeste 0 -- -- 77
2019-11-16 13:00:00 4.8 10 Noroeste 15 Noroeste 0 -- -- 81
2019-11-16 12:00:00 3.3 5 Noroeste 11 Oeste 0 -- -- 86
2019-11-16 11:00:00 2.4 4 Noroeste 11 Norte 0 -- -- 92
2019-11-16 10:00:00 1.6 3 Noroeste 6 Norte 0 -- -- 94
2019-11-16 09:00:00 0.5 2 Noroeste 10 Norte 0 -- -- 95
2019-11-16 08:00:00 -0.3 2 Sur 5 Sur 0 -- -- 95
2019-11-16 07:00:00 -0.5 0 Calma 9 Norte 0 -- -- 94
2019-11-16 06:00:00 -0.9 4 Norte 9 Norte 0 -- -- 94
2019-11-16 05:00:00 -0.5 6 Norte 10 Norte 0 -- -- 93
2019-11-16 04:00:00 -0.2 5 Norte 11 Norte 0 -- -- 92
2019-11-16 03:00:00 0.8 3 Noroeste 8 Norte 0 -- -- 90
2019-11-16 02:00:00 1.5 7 Noroeste 15 Noroeste 0 -- -- 89
2019-11-16 01:00:00 1.7 9 Noroeste 14 Noroeste 0 -- -- 89
2019-11-16 00:00:00 1.7 9 Noroeste 15 Noroeste 0 -- -- 88
2019-11-15 23:00:00 2.1 9 Noroeste 17 Oeste 0 -- -- 86
2019-11-15 22:00:00 2.3 13 Noroeste 19 Noroeste 0 -- -- 85
2019-11-15 21:00:00 2 10 Noroeste 20 Noroeste 0 -- -- 84
2019-11-15 20:00:00 2.7 8 Noroeste 25 Noroeste 0 -- -- 79
2019-11-15 19:00:00 3.4 9 Noroeste 24 Noroeste 0 -- -- 74
2019-11-15 18:00:00 4.6 17 Noroeste 32 Norte 0 -- -- 71
2019-11-15 17:00:00 5.5 24 Noroeste 41 Norte 0 -- -- 63
2019-11-15 16:00:00 5.1 26 Norte 47 Norte 0 -- -- 65
2019-11-15 15:00:00 6.2 24 Noroeste 43 Noroeste 0 -- -- 62
2019-11-15 14:00:00 5.4 22 Noroeste 44 Norte 0 -- -- 65
2019-11-15 13:00:00 5 29 Noroeste 41 Noroeste 0 -- -- 66
2019-11-15 12:00:00 4.4 22 Norte 41 Noroeste 0 -- -- 75
2019-11-15 11:00:00 3.7 26 Noroeste 37 Norte 0 -- -- 82
2019-11-15 10:00:00 2.3 18 Noroeste 30 Noroeste 0 -- -- 87
2019-11-15 09:00:00 1.5 15 Noroeste 32 Noroeste 0 -- -- 88
2019-11-15 08:00:00 1.2 15 Noroeste 28 Noroeste 0 -- -- 88
2019-11-15 07:00:00 1 17 Noroeste 28 Noroeste 0 -- -- 87
2019-11-15 06:00:00 1.5 15 Noroeste 30 Noroeste 0 -- -- 85
2019-11-15 05:00:00 1.6 13 Noroeste 27 Noroeste 0 -- -- 86
2019-11-15 04:00:00 1.6 10 Noroeste 27 Noroeste 0 -- -- 86
2019-11-15 03:00:00 2 19 Noroeste 31 Noroeste 0 -- -- 85
2019-11-15 02:00:00 2.2 22 Noroeste 36 Noroeste 0 -- -- 83
2019-11-15 01:00:00 2.7 25 Noroeste 37 Noroeste 0 -- -- 84
2019-11-15 00:00:00 2.8 20 Noroeste 29 Noroeste 0 -- -- 85
2019-11-14 23:00:00 3.2 16 Noroeste 30 Oeste 0 -- -- 84
2019-11-14 22:00:00 4.1 18 Noroeste 30 Noroeste 0 -- -- 85
2019-11-14 21:00:00 3.9 18 Noroeste 56 Noroeste 0.2 -- -- 85
2019-11-14 20:00:00 5 24 Noroeste 47 Noroeste 0.2 -- -- 84
2019-11-14 19:00:00 5 21 Oeste 36 Oeste 0 -- -- 88
2019-11-14 18:00:00 4.8 19 Noroeste 58 Noroeste 0.2 -- -- 89
2019-11-14 17:00:00 5.8 26 Oeste 43 Oeste 0.2 -- -- 89
2019-11-14 16:00:00 5.3 20 Oeste 43 Oeste 0.4 -- -- 91
2019-11-14 15:00:00 4.9 24 Oeste 55 Oeste 0.6 -- -- 87
2019-11-14 14:00:00 6.2 30 Oeste 58 Oeste 0 -- -- 76
2019-11-14 13:00:00 5.9 29 Oeste 49 Oeste 0 -- -- 73
2019-11-14 12:00:00 5.3 27 Oeste 44 Oeste 0 -- -- 78
2019-11-14 11:00:00 4.9 17 Oeste 35 Noroeste 0.2 -- -- 86
2019-11-14 10:00:00 4 17 Noroeste 32 Noroeste 0 -- -- 91
2019-11-14 09:00:00 3.8 15 Noroeste 32 Noroeste 0 -- -- 92
2019-11-14 08:00:00 3.9 27 Noroeste 46 Noroeste 0 -- -- 90
2019-11-14 07:00:00 5.2 23 Noroeste 48 Noroeste 0.4 -- -- 93
2019-11-14 06:00:00 6.7 30 Noroeste 49 Oeste 0 -- -- 88
2019-11-14 05:00:00 7.5 23 Oeste 45 Oeste 0 -- -- 89
2019-11-14 04:00:00 7.1 16 Oeste 27 Sudoeste 1 -- -- 91
2019-11-14 03:00:00 8.2 11 Sudoeste 28 Oeste 0 -- -- 77
2019-11-14 02:00:00 8.2 15 Oeste 29 Oeste 0 -- -- 77
2019-11-14 01:00:00 8 17 Oeste 33 Sudoeste 0 -- -- 78
2019-11-14 00:00:00 7.4 14 Oeste 38 Oeste 0 -- -- 80
2019-11-13 23:00:00 7.7 22 Oeste 37 Noroeste 0 -- -- 80
2019-11-13 22:00:00 8.1 24 Oeste 37 Oeste 0 -- -- 81
2019-11-13 21:00:00 9 22 Noroeste 31 Noroeste 0 -- -- 85
2019-11-13 20:00:00 9.8 16 Oeste 28 Oeste 0 -- -- 84
2019-11-13 19:00:00 11 15 Oeste 28 Oeste 0 -- -- 79
2019-11-13 18:00:00 12.8 15 Noroeste 28 Noroeste 0 -- -- 70
2019-11-13 17:00:00 14.8 17 Oeste 31 Oeste 0 -- -- 65
2019-11-13 16:00:00 15 18 Oeste 33 Noroeste 0 -- -- 66
2019-11-13 15:00:00 15.1 26 Oeste 38 Noroeste 0 -- -- 68
2019-11-13 14:00:00 13.8 12 Noroeste 29 Oeste 0 -- -- 72
2019-11-13 13:00:00 13.8 15 Noroeste 36 Oeste 0 -- -- 73
2019-11-13 12:00:00 13 22 Noroeste 33 Noroeste 0.2 -- -- 82
2019-11-13 11:00:00 11.7 21 Noroeste 35 Noroeste 0 -- -- 91
2019-11-13 10:00:00 10.5 19 Noroeste 30 Oeste 0 -- -- 94
2019-11-13 09:00:00 10.1 10 Noroeste 29 Oeste 0 -- -- 93
2019-11-13 08:00:00 10.6 12 Noroeste 29 Oeste 0 -- -- 92
2019-11-13 07:00:00 10.9 18 Oeste 26 Oeste 0 -- -- 93
2019-11-13 06:00:00 10.8 14 Oeste 32 Oeste 0 -- -- 92
2019-11-13 05:00:00 11.4 17 Noroeste 24 Noroeste 0 -- -- 95
2019-11-13 04:00:00 10.9 16 Sudoeste 32 Sudoeste 0 -- -- 95
2019-11-13 03:00:00 10.5 20 Sudoeste 30 Sudoeste 0.2 -- -- 95
2019-11-13 02:00:00 10 17 Sudoeste 30 Sudoeste 0.2 -- -- 95
2019-11-13 01:00:00 9.9 19 Sudoeste 27 Sudoeste 0.6 -- -- 93
2019-11-13 00:00:00 10.5 17 Sudoeste 27 Sudoeste 0 -- -- 88
2019-11-12 23:00:00 10.3 14 Sudoeste 26 Sudoeste 0 -- -- 90
2019-11-12 22:00:00 9.9 13 Oeste 24 Oeste 0 -- -- 92
2019-11-12 21:00:00 10.1 8 Oeste 22 Oeste 0 -- -- 88
2019-11-12 20:00:00 10.2 5 Sudoeste 14 Sur 0 -- -- 84
2019-11-12 19:00:00 9.9 3 Sur 17 Oeste 0 -- -- 85
2019-11-12 18:00:00 10 13 Oeste 23 Oeste 0 -- -- 83
2019-11-12 17:00:00 9.7 8 Noroeste 16 Oeste 0 -- -- 80
2019-11-12 16:00:00 9.7 9 Oeste 23 Noroeste 0 -- -- 77
2019-11-12 15:00:00 10 13 Noroeste 24 Noroeste 0 -- -- 73
2019-11-12 14:00:00 9.2 13 Noroeste 24 Norte 0 -- -- 74
2019-11-12 13:00:00 9.1 15 Norte 26 Norte 0 -- -- 73
2019-11-12 12:00:00 8.2 15 Noroeste 26 Noroeste 0 -- -- 77
2019-11-12 11:00:00 6.7 11 Norte 23 Noroeste 0 -- -- 81
2019-11-12 10:00:00 5.2 8 Norte 17 Norte 0 -- -- 87
2019-11-12 09:00:00 3 4 Noroeste 9 Noroeste 0 -- -- 93
2019-11-12 08:00:00 2.7 0 Calma 6 Norte 0 -- -- 93
2019-11-12 07:00:00 2.9 3 Norte 6 Norte 0 -- -- 94
2019-11-12 06:00:00 3 2 Norte 6 Noroeste 0 -- -- 94
2019-11-12 05:00:00 2.8 5 Noroeste 8 Noroeste 0 -- -- 93
2019-11-12 04:00:00 3.1 4 Noroeste 8 Noroeste 0 -- -- 93
2019-11-12 03:00:00 3.6 2 Norte 9 Noroeste 0 -- -- 91
2019-11-12 02:00:00 4.4 6 Norte 9 Norte 0 -- -- 89
2019-11-12 01:00:00 4.7 6 Norte 14 Norte 0 -- -- 89
2019-11-12 00:00:00 4.9 10 Norte 14 Noroeste 0 -- -- 88
2019-11-11 23:00:00 5 6 Noroeste 10 Noroeste 0 -- -- 87
2019-11-11 22:00:00 6 4 Noroeste 14 Norte 0 -- -- 85
2019-11-11 21:00:00 7 11 Noroeste 17 Noroeste 0 -- -- 84
2019-11-11 20:00:00 8 10 Norte 18 Noroeste 0 -- -- 83
2019-11-11 19:00:00 9.1 12 Noroeste 22 Noroeste 0 -- -- 79
2019-11-11 18:00:00 10.7 12 Norte 27 Norte 0 -- -- 73
2019-11-11 17:00:00 11.7 22 Norte 37 Norte 0 -- -- 72
2019-11-11 16:00:00 12.1 25 Norte 39 Noroeste 0 -- -- 81
2019-11-11 15:00:00 12.4 23 Norte 44 Norte 0 -- -- 83
2019-11-11 14:00:00 12.1 21 Noroeste 33 Norte 0 -- -- 94
2019-11-11 13:00:00 11.1 19 Noroeste 26 Noroeste 0 -- -- 99
2019-11-11 12:00:00 10.5 13 Noroeste 24 Noroeste 0 -- -- 99
2019-11-11 11:00:00 10.1 10 Noroeste 19 Noroeste 0.2 -- -- 99
2019-11-11 10:00:00 9.7 14 Noroeste 21 Oeste 0 -- -- 99
2019-11-11 09:00:00 9 8 Noroeste 16 Oeste 0 -- -- 99
2019-11-11 08:00:00 7.9 3 Oeste 6 Sudoeste 0 -- -- 99
2019-11-11 07:00:00 7.3 0 Calma 5 Sudeste 0 -- -- 99
2019-11-11 06:00:00 7.1 0 Calma 5 Noroeste 0.2 -- -- 99
2019-11-11 05:00:00 6.7 4 Noroeste 10 Oeste 0 -- -- 99
2019-11-11 04:00:00 6.4 5 Noroeste 13 Noroeste 0 -- -- 99
2019-11-11 03:00:00 6.4 6 Noroeste 13 Noroeste 0 -- -- 98
2019-11-11 02:00:00 6.2 10 Noroeste 16 Noroeste 0 -- -- 98
2019-11-11 01:00:00 6 10 Noroeste 19 Noroeste 0 -- -- 98
2019-11-11 00:00:00 5.7 9 Norte 14 Noroeste 0.2 -- -- 98
2019-11-10 23:00:00 5.6 7 Noroeste 12 Noroeste 0 -- -- 97
2019-11-10 22:00:00 5.5 7 Norte 12 Noroeste 0 -- -- 96
2019-11-10 21:00:00 5.6 11 Noroeste 19 Noroeste 0.2 -- -- 93
2019-11-10 20:00:00 5.9 13 Noroeste 27 Noroeste 0 -- -- 91
2019-11-10 19:00:00 6.2 18 Noroeste 29 Noroeste 0 -- -- 90
2019-11-10 18:00:00 6.3 20 Noroeste 33 Oeste 0 -- -- 86
2019-11-10 17:00:00 6.6 15 Noroeste 36 Noroeste 0 -- -- 86
2019-11-10 16:00:00 6.6 23 Noroeste 32 Noroeste 0 -- -- 83
2019-11-10 15:00:00 6.3 19 Noroeste 29 Noroeste 0 -- -- 85
2019-11-10 14:00:00 6.2 14 Noroeste 33 Oeste 0 -- -- 89
2019-11-10 13:00:00 6.3 20 Noroeste 30 Noroeste 0.2 -- -- 83
2019-11-10 12:00:00 6.8 19 Noroeste 31 Norte 0 -- -- 76
2019-11-10 11:00:00 6.8 18 Noroeste 31 Noroeste 0 -- -- 75
2019-11-10 10:00:00 5.5 14 Noroeste 21 Noroeste 0 -- -- 87
2019-11-10 09:00:00 3.8 9 Oeste 14 Noroeste 0 -- -- 93
2019-11-10 08:00:00 4.1 8 Noroeste 15 Noroeste 0 -- -- 93
2019-11-10 07:00:00 3.6 10 Noroeste 16 Norte 0 -- -- 90
2019-11-10 06:00:00 4.3 9 Norte 22 Norte 0 -- -- 87
2019-11-10 05:00:00 4.4 15 Noroeste 23 Noroeste 0 -- -- 90
2019-11-10 04:00:00 4.6 12 Norte 18 Norte 0 -- -- 87
2019-11-10 03:00:00 5.4 11 Norte 34 Norte 0 -- -- 86
2019-11-10 02:00:00 6.2 17 Noroeste 29 Noroeste 0 -- -- 93
2019-11-10 01:00:00 6.4 19 Noroeste 29 Noroeste 0 -- -- 93
2019-11-10 00:00:00 6.3 14 Noroeste 26 Noroeste 0 -- -- 94
2019-11-09 23:00:00 6.7 16 Noroeste 26 Oeste 0 -- -- 96
2019-11-09 22:00:00 7.1 9 Noroeste 27 Noroeste 0 -- -- 96
2019-11-09 21:00:00 7.8 14 Noroeste 30 Noroeste 0 -- -- 96
2019-11-09 20:00:00 8.4 13 Noroeste 21 Noroeste 0 -- -- 97
2019-11-09 19:00:00 9 13 Noroeste 21 Oeste 0 -- -- 97
2019-11-09 18:00:00 9 10 Oeste 17 Oeste 0 -- -- 96
2019-11-09 17:00:00 8.5 7 Oeste 28 Sur 0.2 -- -- 95
2019-11-09 16:00:00 8.2 23 Sur 32 Sur 1.2 -- -- 94
2019-11-09 15:00:00 8.2 18 Sur 36 Sur 1 -- -- 88
2019-11-09 14:00:00 9.3 25 Sur 33 Sur 0 -- -- 77
2019-11-09 13:00:00 10.3 18 Sur 27 Sudoeste 0 -- -- 76
2019-11-09 12:00:00 7.9 12 Sur 20 Sudeste 0 -- -- 86
2019-11-09 11:00:00 6.6 6 Sudeste 12 Sudeste 0 -- -- 94
2019-11-09 10:00:00 4.6 4 Sudeste 9 Sur 0 -- -- 97
2019-11-09 09:00:00 3 5 Sudeste 9 Sudeste 0.4 -- -- 97
2019-11-09 08:00:00 1.6 4 Sudeste 12 Sudeste 0 -- -- 96
2019-11-09 07:00:00 1.2 5 Sudeste 10 Sudeste 0 -- -- 96
2019-11-09 06:00:00 1.6 0 Calma 6 Noroeste 0 -- -- 95
2019-11-09 05:00:00 1.9 4 Noroeste 6 Noroeste 0 -- -- 97
2019-11-09 04:00:00 1.3 3 Sur 7 Sur 0 -- -- 96
2019-11-09 03:00:00 1.3 5 Sur 9 Sur 0 -- -- 95
2019-11-09 02:00:00 2.1 4 Sudoeste 9 Sudoeste 0 -- -- 92
2019-11-09 01:00:00 2.4 3 Oeste 10 Oeste 0 -- -- 92
2019-11-09 00:00:00 2.4 5 Oeste 8 Oeste 0 -- -- 90
2019-11-08 23:00:00 3 4 Noroeste 8 Oeste 0 -- -- 88
2019-11-08 22:00:00 3.8 0 Calma 10 Oeste 0 -- -- 85
2019-11-08 21:00:00 4.7 5 Oeste 19 Noroeste 0 -- -- 82
2019-11-08 20:00:00 5.4 13 Noroeste 18 Noroeste 0 -- -- 78
2019-11-08 19:00:00 6.2 14 Noroeste 24 Noroeste 0 -- -- 73
2019-11-08 18:00:00 7.6 17 Noroeste 29 Noroeste 0 -- -- 68
2019-11-08 17:00:00 8.3 15 Noroeste 30 Noroeste 0 -- -- 64
2019-11-08 16:00:00 8.2 17 Noroeste 34 Noroeste 0 -- -- 63
2019-11-08 15:00:00 8.9 20 Noroeste 36 Noroeste 0 -- -- 63
2019-11-08 14:00:00 8.2 19 Noroeste 36 Noroeste 0 -- -- 69
2019-11-08 13:00:00 7.3 19 Noroeste 32 Noroeste 0 -- -- 71
2019-11-08 12:00:00 6.8 22 Norte 31 Noroeste 0 -- -- 73
2019-11-08 11:00:00 5.8 19 Noroeste 32 Noroeste 0 -- -- 79
2019-11-08 10:00:00 4.1 13 Noroeste 28 Oeste 0 -- -- 89
2019-11-08 09:00:00 2.1 15 Noroeste 25 Noroeste 0 -- -- 93
2019-11-08 08:00:00 1.8 12 Noroeste 22 Oeste 0 -- -- 94
2019-11-08 07:00:00 2.1 13 Noroeste 23 Oeste 0 -- -- 93
2019-11-08 06:00:00 1.9 10 Noroeste 17 Noroeste 0 -- -- 93
2019-11-08 05:00:00 2.1 9 Oeste 19 Noroeste 0 -- -- 92
2019-11-08 04:00:00 2.6 8 Oeste 15 Oeste 0 -- -- 92
2019-11-08 03:00:00 2.8 3 Norte 20 Oeste 0 -- -- 92
2019-11-08 02:00:00 2.9 13 Oeste 21 Oeste 0 -- -- 91
2019-11-08 01:00:00 3.4 12 Oeste 31 Oeste 0.2 -- -- 92
2019-11-08 00:00:00 4 12 Oeste 24 Noroeste 0 -- -- 91
2019-11-07 23:00:00 4.2 20 Noroeste 29 Oeste 0.2 -- -- 87
2019-11-07 22:00:00 4.3 17 Noroeste 27 Oeste 0 -- -- 88
2019-11-07 21:00:00 4.1 15 Noroeste 28 Oeste 0 -- -- 90
2019-11-07 20:00:00 4.3 13 Noroeste 28 Noroeste 0 -- -- 90
2019-11-07 19:00:00 4.8 21 Noroeste 46 Noroeste 0 -- -- 88
2019-11-07 18:00:00 6.1 14 Oeste 25 Oeste 0 -- -- 85
2019-11-07 17:00:00 6.4 17 Oeste 38 Noroeste 0 -- -- 82
2019-11-07 16:00:00 7.1 15 Oeste 36 Noroeste 0.4 -- -- 87
2019-11-07 15:00:00 7.5 22 Noroeste 38 Noroeste 0 -- -- 84
2019-11-07 14:00:00 8.7 17 Oeste 32 Noroeste 0.2 -- -- 75
2019-11-07 13:00:00 9 15 Noroeste 47 Oeste 0 -- -- 67
2019-11-07 12:00:00 8.9 22 Noroeste 44 Noroeste 0 -- -- 72
2019-11-07 11:00:00 7.4 24 Noroeste 35 Noroeste 0 -- -- 79
2019-11-07 10:00:00 6.2 18 Noroeste 26 Noroeste 0 -- -- 88
2019-11-07 09:00:00 5.4 16 Noroeste 25 Oeste 0 -- -- 91
2019-11-07 08:00:00 5.6 16 Noroeste 24 Oeste 0 -- -- 88
2019-11-07 07:00:00 6.6 12 Noroeste 28 Noroeste 0 -- -- 86
2019-11-07 06:00:00 7.5 22 Noroeste 35 Noroeste 0 -- -- 85
2019-11-07 05:00:00 9.4 22 Noroeste 33 Noroeste 0 -- -- 94
2019-11-07 04:00:00 10.4 12 Noroeste 20 Noroeste 0 -- -- 97
2019-11-07 03:00:00 10.6 15 Oeste 25 Oeste 0.2 -- -- 97
2019-11-07 02:00:00 9.8 12 Sur 21 Sur 0 -- -- 97
2019-11-07 01:00:00 9.7 14 Sur 21 Sur 0 -- -- 96
2019-11-07 00:00:00 9.6 15 Sur 24 Sur 0 -- -- 96
2019-11-06 23:00:00 9.6 18 Sur 27 Sur 0.6 -- -- 94
2019-11-06 22:00:00 9.6 20 Sur 28 Sur 0 -- -- 94
2019-11-06 21:00:00 9.1 10 Sur 17 Sur 0 -- -- 95
2019-11-06 20:00:00 8.9 8 Sur 18 Sur 0.2 -- -- 94
2019-11-06 19:00:00 9.2 9 Sur 15 Sur 0.2 -- -- 92
2019-11-06 18:00:00 10.3 7 Sudoeste 12 Oeste 0 -- -- 83
2019-11-06 17:00:00 10.6 5 Oeste 13 Oeste 0 -- -- 80
2019-11-06 16:00:00 10.7 6 Oeste 19 Noroeste 0 -- -- 78
2019-11-06 15:00:00 10.8 9 Noroeste 18 Noroeste 0 -- -- 77
2019-11-06 14:00:00 10.4 9 Noroeste 21 Norte 0 -- -- 75
2019-11-06 13:00:00 10 10 Noroeste 20 Noroeste 0 -- -- 79
2019-11-06 12:00:00 9.2 8 Noroeste 17 Oeste 0 -- -- 86
2019-11-06 11:00:00 8.5 10 Noroeste 15 Noroeste 0 -- -- 88
2019-11-06 10:00:00 7.6 9 Noroeste 16 Noroeste 0 -- -- 90
2019-11-06 09:00:00 6.1 6 Noroeste 9 Noroeste 0 -- -- 94
2019-11-06 08:00:00 5.7 7 Noroeste 16 Noroeste 0 -- -- 94
2019-11-06 07:00:00 5.3 12 Noroeste 17 Oeste 0 -- -- 96
2019-11-06 06:00:00 5.1 4 Noroeste 13 Noroeste 0 -- -- 95
2019-11-06 05:00:00 5.2 8 Noroeste 16 Oeste 0 -- -- 94
2019-11-06 04:00:00 5.9 9 Noroeste 19 Noroeste 0 -- -- 95
2019-11-06 03:00:00 5.4 6 Noroeste 14 Noroeste 0 -- -- 95
2019-11-06 02:00:00 5.8 6 Noroeste 13 Noroeste 0 -- -- 94
2019-11-06 01:00:00 6.3 6 Norte 25 Oeste 0 -- -- 93
2019-11-06 00:00:00 6.9 16 Noroeste 24 Oeste 0 -- -- 93
2019-11-05 23:00:00 7 10 Noroeste 26 Noroeste 0 -- -- 91
2019-11-05 22:00:00 7.6 18 Noroeste 27 Noroeste 0 -- -- 88
2019-11-05 21:00:00 8.3 16 Noroeste 26 Oeste 0 -- -- 86
2019-11-05 20:00:00 8.8 18 Noroeste 26 Noroeste 0 -- -- 81
2019-11-05 19:00:00 9.7 14 Noroeste 33 Noroeste 0 -- -- 79
2019-11-05 18:00:00 10.5 21 Noroeste 36 Noroeste 0 -- -- 75
2019-11-05 17:00:00 11 24 Noroeste 40 Noroeste 0 -- -- 72
2019-11-05 16:00:00 11.9 25 Oeste 48 Oeste 0 -- -- 71
2019-11-05 15:00:00 11.4 27 Noroeste 41 Oeste 0 -- -- 72
2019-11-05 14:00:00 11.2 28 Noroeste 43 Oeste 0 -- -- 73
2019-11-05 13:00:00 11.3 24 Oeste 45 Noroeste 0 -- -- 74
2019-11-05 12:00:00 10.6 22 Noroeste 36 Oeste 0 -- -- 76
2019-11-05 11:00:00 9.7 22 Oeste 39 Oeste 0 -- -- 78
2019-11-05 10:00:00 8.6 15 Oeste 26 Oeste 0.2 -- -- 93
2019-11-05 09:00:00 7.2 14 Sudoeste 22 Sudoeste 0 -- -- 94
2019-11-05 08:00:00 6.9 14 Sudoeste 21 Sudoeste 0 -- -- 90
2019-11-05 07:00:00 7 13 Oeste 27 Oeste 0 -- -- 87
2019-11-05 06:00:00 6.5 11 Oeste 27 Oeste 0 -- -- 86
2019-11-05 05:00:00 6.4 12 Oeste 26 Oeste 0 -- -- 87
2019-11-05 04:00:00 6.2 12 Oeste 31 Oeste 0 -- -- 86
2019-11-05 03:00:00 6.6 9 Oeste 27 Oeste 0 -- -- 85
2019-11-05 02:00:00 7.2 16 Oeste 27 Oeste 0 -- -- 83
2019-11-05 01:00:00 7.1 15 Oeste 35 Oeste 0 -- -- 83
2019-11-05 00:00:00 7.2 10 Oeste 31 Oeste 0 -- -- 85
2019-11-04 23:00:00 8.1 18 Oeste 33 Oeste 0 -- -- 83
2019-11-04 22:00:00 8.3 12 Noroeste 38 Oeste 0 -- -- 85
2019-11-04 21:00:00 8.5 14 Oeste 37 Oeste 0 -- -- 88
2019-11-04 20:00:00 9.5 19 Oeste 42 Noroeste 0 -- -- 86
2019-11-04 19:00:00 9.8 21 Oeste 43 Oeste 0.2 -- -- 87
2019-11-04 18:00:00 11.3 19 Oeste 35 Oeste 0 -- -- 83
2019-11-04 17:00:00 12.2 23 Oeste 41 Oeste 0 -- -- 78
2019-11-04 16:00:00 12.2 26 Oeste 51 Oeste 0.2 -- -- 83
2019-11-04 15:00:00 13.2 27 Oeste 56 Sudoeste 0.2 -- -- 87
2019-11-04 14:00:00 13.8 32 Sudoeste 47 Sudoeste 0 -- -- 85
2019-11-04 13:00:00 13.5 29 Sudoeste 47 Sudoeste 0 -- -- 86
2019-11-04 12:00:00 13.2 31 Sudoeste 47 Sur 0 -- -- 85
2019-11-04 11:00:00 12.5 27 Sur 43 Sur 0 -- -- 86
2019-11-04 10:00:00 12.1 26 Sur 42 Sur 0 -- -- 87
2019-11-04 09:00:00 11.1 23 Sur 32 Sur 0 -- -- 90
2019-11-04 08:00:00 10.4 14 Sur 23 Sur 0 -- -- 93
2019-11-04 07:00:00 10.7 13 Sur 22 Sur 0 -- -- 92
2019-11-04 06:00:00 10.8 10 Sur 22 Sudoeste 0.2 -- -- 93
2019-11-04 05:00:00 10.6 15 Sur 25 Sur 0 -- -- 92
2019-11-04 04:00:00 11 17 Sur 30 Sudoeste 0 -- -- 92
2019-11-04 03:00:00 11 13 Sur 19 Sur 0 -- -- 95
2019-11-04 02:00:00 11.4 14 Sur 22 Sur 0 -- -- 95
2019-11-04 01:00:00 11.8 7 Sur 16 Sudoeste 0 -- -- 95
2019-11-04 00:00:00 11.7 9 Sudoeste 23 Sudoeste 0.4 -- -- 95
2019-11-03 23:00:00 11.9 16 Sur 23 Sur 0 -- -- 91
2019-11-03 22:00:00 12.1 11 Sur 29 Sudoeste 0 -- -- 86
2019-11-03 21:00:00 12.5 17 Sudoeste 27 Sudoeste 0 -- -- 84
2019-11-03 20:00:00 12.4 10 Sudoeste 20 Sudoeste 0 -- -- 83
2019-11-03 19:00:00 12.4 12 Oeste 27 Oeste 0 -- -- 82
2019-11-03 18:00:00 12.6 9 Oeste 30 Oeste 0 -- -- 80
2019-11-03 17:00:00 13.4 19 Oeste 31 Oeste 0 -- -- 76
2019-11-03 16:00:00 12.7 13 Oeste 36 Noroeste 0 -- -- 79
2019-11-03 15:00:00 11.8 24 Oeste 34 Noroeste 0 -- -- 80
2019-11-03 14:00:00 11.6 17 Noroeste 33 Noroeste 0 -- -- 77
2019-11-03 13:00:00 11.5 22 Oeste 42 Noroeste 0 -- -- 79
2019-11-03 12:00:00 11.2 28 Noroeste 44 Noroeste 0 -- -- 78
2019-11-03 11:00:00 10.4 27 Noroeste 46 Noroeste 0 -- -- 81
2019-11-03 10:00:00 10.6 31 Noroeste 50 Oeste 0 -- -- 74
2019-11-03 09:00:00 10.8 24 Oeste 46 Noroeste 0 -- -- 84
2019-11-03 08:00:00 11.6 27 Oeste 45 Noroeste 0 -- -- 87
2019-11-03 07:00:00 12.5 28 Noroeste 50 Oeste 0 -- -- 88
2019-11-03 06:00:00 12.7 26 Oeste 40 Oeste 0 -- -- 88
2019-11-03 05:00:00 12.3 21 Oeste 43 Oeste 0 -- -- 89
2019-11-03 04:00:00 11.3 9 Sudoeste 19 Sur 0 -- -- 91
2019-11-03 03:00:00 11.1 10 Sur 28 Sudoeste 0 -- -- 90
2019-11-03 02:00:00 10.9 18 Sudoeste 33 Sudoeste 0 -- -- 91
2019-11-03 01:00:00 10.8 13 Sur 26 Sudoeste 0 -- -- 92
2019-11-03 00:00:00 10.8 19 Sudoeste 39 Sudoeste 0.4 -- -- 93
2019-11-02 23:00:00 11.6 18 Sudoeste 31 Sudoeste 0 -- -- 85
2019-11-02 22:00:00 11.5 18 Sudoeste 28 Sudoeste 0 -- -- 83
2019-11-02 21:00:00 11.8 15 Sudoeste 34 Sudoeste 0 -- -- 78
2019-11-02 20:00:00 12.3 22 Sudoeste 35 Sudoeste 0 -- -- 76
2019-11-02 19:00:00 12.6 17 Oeste 25 Oeste 0 -- -- 80
2019-11-02 18:00:00 13.2 18 Oeste 28 Oeste 0 -- -- 79
2019-11-02 17:00:00 14 12 Oeste 28 Oeste 0 -- -- 79
2019-11-02 16:00:00 14.8 21 Oeste 42 Oeste 0 -- -- 78
2019-11-02 15:00:00 15.8 21 Sudoeste 32 Sudoeste 0 -- -- 80
2019-11-02 14:00:00 15.4 17 Sudoeste 32 Sudoeste 0 -- -- 84
2019-11-02 13:00:00 15.4 18 Sudoeste 24 Sudoeste 0 -- -- 83
2019-11-02 12:00:00 14.4 14 Sudoeste 26 Sudoeste 0 -- -- 87
2019-11-02 11:00:00 14.9 15 Oeste 33 Sudoeste 0 -- -- 85
2019-11-02 10:00:00 13.9 17 Sudoeste 24 Sudoeste 0 -- -- 93
2019-11-02 09:00:00 12.9 10 Sur 22 Sudoeste 0 -- -- 96
2019-11-02 08:00:00 12.9 12 Sudoeste 19 Sudoeste 0 -- -- 95
2019-11-02 07:00:00 13 14 Sudoeste 22 Sur 0 -- -- 95
2019-11-02 06:00:00 13.2 14 Sur 22 Sur 0.2 -- -- 95
2019-11-02 05:00:00 13.2 12 Sur 20 Sur 0 -- -- 95
2019-11-02 04:00:00 13.3 13 Sur 19 Sur 0 -- -- 95
2019-11-02 03:00:00 13.1 9 Sudeste 16 Sur 0 -- -- 95
2019-11-02 02:00:00 13.4 14 Sur 19 Sudoeste 0.6 -- -- 94
2019-11-02 01:00:00 14 15 Sudoeste 22 Sudoeste 1.4 -- -- 93
2019-11-02 00:00:00 14 13 Sudoeste 26 Sudoeste 0 -- -- 93
2019-11-01 23:00:00 14.4 17 Sudoeste 26 Sur 0.6 -- -- 93
2019-11-01 22:00:00 14.4 14 Sudoeste 24 Sudoeste 1.2 -- -- 93
2019-11-01 21:00:00 14.5 13 Sudoeste 26 Sudoeste 0 -- -- 94
2019-11-01 20:00:00 13.7 4 Sur 22 Noroeste 3.4 -- -- 95
2019-11-01 19:00:00 13.4 18 Oeste 53 Oeste 8.4 -- -- 91
2019-11-01 18:00:00 15.8 17 Sudoeste 28 Sudoeste 0.8 -- -- 90
2019-11-01 17:00:00 16.6 16 Sudoeste 41 Oeste 0.2 -- -- 85
2019-11-01 16:00:00 18.8 27 Oeste 45 Sudoeste 0 -- -- 73
2019-11-01 15:00:00 17.8 27 Oeste 41 Sudoeste 0 -- -- 78
2019-11-01 14:00:00 18 22 Sudoeste 35 Oeste 0 -- -- 81
2019-11-01 13:00:00 17.5 16 Sudoeste 31 Sudoeste 0 -- -- 85
2019-11-01 12:00:00 17.8 16 Sudoeste 26 Sudoeste 0 -- -- 89
2019-11-01 11:00:00 16 11 Sur 20 Sur 2 -- -- 95
2019-11-01 10:00:00 15.7 12 Sudoeste 17 Sudoeste 0 -- -- 94
2019-11-01 09:00:00 15.1 8 Sur 18 Oeste 0 -- -- 93
2019-11-01 08:00:00 15.3 11 Oeste 22 Oeste 0 -- -- 92
2019-11-01 07:00:00 14.8 3 Sur 12 Sur 0 -- -- 93
2019-11-01 06:00:00 14.8 4 Sur 11 Sudoeste 0 -- -- 95
2019-11-01 05:00:00 15.1 7 Sudoeste 14 Sudoeste 0 -- -- 93
2019-11-01 04:00:00 15.7 5 Sudoeste 12 Sudoeste 0 -- -- 92
2019-11-01 03:00:00 15.7 3 Sudoeste 17 Oeste 0 -- -- 93
2019-11-01 02:00:00 15.6 7 Noroeste 15 Oeste 0 -- -- 94
2019-11-01 01:00:00 15.2 6 Oeste 13 Oeste 0 -- -- 95
2019-11-01 00:00:00 15.3 8 Noroeste 14 Noroeste 0 -- -- 95
2019-10-31 23:00:00 15.4 9 Noroeste 23 Oeste 0 -- -- 94
2019-10-31 22:00:00 15.4 8 Oeste 16 Oeste 0 -- -- 95
2019-10-31 21:00:00 15.9 9 Oeste 18 Oeste 0.2 -- -- 94
2019-10-31 20:00:00 16 4 Oeste 17 Oeste 0 -- -- 94
2019-10-31 19:00:00 16.3 7 Oeste 17 Oeste 0 -- -- 93
2019-10-31 18:00:00 16.6 5 Oeste 19 Noroeste 0 -- -- 91
2019-10-31 17:00:00 17.7 12 Oeste 19 Oeste 0.2 -- -- 83
2019-10-31 16:00:00 18 5 Noroeste 6 Noroeste 0 -- -- 80
2019-10-31 15:00:00 18.1 2 Norte 7 Este 0 -- -- 78
2019-10-31 14:00:00 17.3 2 Nordeste 11 Noroeste 0 -- -- 83
2019-10-31 13:00:00 17 8 Noroeste 20 Noroeste 0 -- -- 82
2019-10-31 12:00:00 15.9 3 Sur 8 Sudeste 0 -- -- 95
2019-10-31 11:00:00 13.9 3 Sudeste 10 Sur 0 -- -- 99
2019-10-31 10:00:00 13.1 3 Sur 6 Sudeste 0 -- -- 99
2019-10-31 09:00:00 11.5 2 Este 8 Sur 0 -- -- 99
2019-10-31 08:00:00 10.5 5 Sur 6 Sur 0 -- -- 98
2019-10-31 07:00:00 10.7 2 Sudeste 5 Sudeste 0 -- -- 98
2019-10-31 06:00:00 10.7 4 Sudeste 6 Sudeste 0 -- -- 98
2019-10-31 05:00:00 11.5 4 Sudeste 9 Sudeste 0 -- -- 98
2019-10-31 04:00:00 11.7 6 Sur 8 Sudeste 0 -- -- 97
2019-10-31 03:00:00 12.6 4 Sur 6 Sur 0 -- -- 98
2019-10-31 02:00:00 12.7 5 Sudeste 7 Sudeste 0 -- -- 97
2019-10-31 01:00:00 13.6 5 Sudeste 7 Sudeste 0 -- -- 98
2019-10-31 00:00:00 13.6 5 Sur 10 Sudoeste 0 -- -- 98
2019-10-30 23:00:00 13.2 7 Sur 11 Sur 0 -- -- 97
2019-10-30 22:00:00 14 4 Sur 12 Sur 0 -- -- 96
2019-10-30 21:00:00 14.4 6 Sur 13 Sur 0 -- -- 96
2019-10-30 20:00:00 14.7 10 Sur 21 Sur 0 -- -- 96
2019-10-30 19:00:00 14.6 14 Sur 22 Sur 0 -- -- 96
2019-10-30 18:00:00 14.8 11 Sur 21 Sur 0.2 -- -- 95
2019-10-30 17:00:00 14.9 16 Sur 28 Sur 0 -- -- 95
2019-10-30 16:00:00 14.4 17 Sur 26 Sur 2 -- -- 95
2019-10-30 15:00:00 14.9 15 Sur 28 Sur 0.4 -- -- 92
2019-10-30 14:00:00 15.2 18 Sur 29 Sur 0.2 -- -- 90
2019-10-30 13:00:00 14.1 10 Sur 17 Sur 0.2 -- -- 95
2019-10-30 12:00:00 13.7 11 Sur 29 Sur 1 -- -- 92
2019-10-30 11:00:00 14.3 11 Sur 14 Sur 0.6 -- -- 93
2019-10-30 10:00:00 13.3 4 Sudoeste 12 Sur 0 -- -- 96
2019-10-30 09:00:00 12.4 8 Sudeste 13 Sudeste 0 -- -- 96
2019-10-30 08:00:00 12 8 Sur 12 Sudeste 0 -- -- 95
2019-10-30 07:00:00 11.8 5 Sur 12 Sur 0 -- -- 94
2019-10-30 06:00:00 12.2 8 Sur 10 Sur 0 -- -- 94
2019-10-30 05:00:00 12.5 3 Sudeste 11 Sudeste 0 -- -- 92
2019-10-30 04:00:00 13.2 10 Sur 14 Sur 0 -- -- 92
2019-10-30 03:00:00 13 5 Sudeste 10 Sudeste 0 -- -- 91
2019-10-30 02:00:00 13.2 3 Este 8 Sudoeste 0 -- -- 91
2019-10-30 01:00:00 12.9 0 Calma 9 Sur 0 -- -- 90
2019-10-30 00:00:00 12.5 3 Sur 9 Sudeste 0 -- -- 91
2019-10-29 23:00:00 12.7 8 Sudeste 12 Sudeste 0 -- -- 90
2019-10-29 22:00:00 13 7 Sur 10 Sur 0 -- -- 88
2019-10-29 21:00:00 13.2 3 Sur 11 Sudeste 0 -- -- 86
2019-10-29 20:00:00 13.9 5 Sudeste 11 Sudeste 0 -- -- 83
2019-10-29 19:00:00 15.1 8 Sur 15 Sudoeste 0 -- -- 78
2019-10-29 18:00:00 15.9 8 Sur 14 Sudoeste 0 -- -- 75
2019-10-29 17:00:00 16.3 10 Sudoeste 17 Sur 0 -- -- 77
2019-10-29 16:00:00 16.2 14 Sur 23 Sur 0 -- -- 79
2019-10-29 15:00:00 17.7 12 Sur 19 Sur 0 -- -- 66
2019-10-29 14:00:00 18.2 3 Oeste 13 Sur 0 -- -- 60
2019-10-29 13:00:00 17.7 5 Sudoeste 14 Sudoeste 0 -- -- 63
2019-10-29 12:00:00 16.8 5 Sudoeste 13 Sur 0 -- -- 66
2019-10-29 11:00:00 15.4 6 Sur 15 Sudeste 0 -- -- 80
2019-10-29 10:00:00 13.6 8 Sudeste 15 Sudeste 0 -- -- 90
2019-10-29 09:00:00 11.3 4 Sur 9 Sudeste 0 -- -- 96
2019-10-29 08:00:00 11.2 5 Sudeste 7 Sudeste 0 -- -- 94
2019-10-29 07:00:00 12 4 Oeste 8 Sudoeste 0 -- -- 96
2019-10-29 06:00:00 12 5 Oeste 17 Noroeste 0 -- -- 97
2019-10-29 05:00:00 11.9 8 Oeste 13 Oeste 0 -- -- 97
2019-10-29 04:00:00 12 4 Sudeste 6 Sudeste 0 -- -- 96
2019-10-29 03:00:00 12.9 4 Sur 13 Sur 0.6 -- -- 96
2019-10-29 02:00:00 12.9 9 Sur 14 Sur 0 -- -- 95
2019-10-29 01:00:00 13.1 12 Sur 15 Sur 0 -- -- 92
2019-10-29 00:00:00 12.9 6 Sur 15 Sur 0 -- -- 92
2019-10-28 23:00:00 12.7 12 Sur 17 Sur 0 -- -- 91
2019-10-28 22:00:00 13.1 12 Sur 17 Sur 0 -- -- 91
2019-10-28 21:00:00 13.4 8 Sur 13 Sur 0 -- -- 89
2019-10-28 20:00:00 14.1 7 Sur 15 Sur 0 -- -- 86
2019-10-28 19:00:00 14.5 10 Sur 16 Sur 0 -- -- 84
2019-10-28 18:00:00 15.4 9 Sur 19 Sudoeste 0 -- -- 81
2019-10-28 17:00:00 16.8 8 Sudoeste 22 Sur 0 -- -- 74
2019-10-28 16:00:00 16.6 14 Sur 27 Sur 0 -- -- 74
2019-10-28 15:00:00 17 18 Sur 28 Sur 0 -- -- 74
2019-10-28 14:00:00 16.4 17 Sur 27 Sur 0 -- -- 75
2019-10-28 13:00:00 15.6 17 Sur 26 Sudeste 0 -- -- 78
2019-10-28 12:00:00 14.6 15 Sudoeste 21 Sur 0 -- -- 83
2019-10-28 11:00:00 14.3 14 Sur 30 Sur 0 -- -- 84
2019-10-28 10:00:00 14.4 19 Sur 38 Sur 0 -- -- 82
2019-10-28 09:00:00 11.6 11 Sur 21 Sur 0 -- -- 90
2019-10-28 08:00:00 11.1 7 Sudoeste 24 Sudeste 0 -- -- 85
2019-10-28 07:00:00 11.4 11 Sudeste 19 Sudeste 0 -- -- 89
2019-10-28 06:00:00 11.3 6 Sur 13 Sudeste 0 -- -- 85
2019-10-28 05:00:00 11.7 7 Sur 12 Sur 0 -- -- 82
2019-10-28 04:00:00 12.7 9 Sur 13 Sudeste 0 -- -- 77
2019-10-28 03:00:00 13.4 5 Sudeste 14 Sudeste 0 -- -- 72
2019-10-28 02:00:00 14 8 Sur 17 Sudeste 0 -- -- 69
2019-10-28 01:00:00 13.5 11 Sur 15 Sur 0 -- -- 70
2019-10-28 00:00:00 14.7 3 Sudoeste 20 Sudeste 0 -- -- 65
2019-10-27 23:00:00 14.7 9 Sur 15 Sur 0 -- -- 62
2019-10-27 22:00:00 13.8 9 Sur 14 Sur 0 -- -- 63
2019-10-27 21:00:00 15.1 8 Sur 18 Sudeste 0 -- -- 60
2019-10-27 20:00:00 15.1 8 Sudeste 13 Sur 0 -- -- 60
2019-10-27 19:00:00 15.6 5 Sur 12 Sudeste 0 -- -- 62
2019-10-27 18:00:00 16.7 5 Sudeste 13 Sur 0 -- -- 59
2019-10-27 17:00:00 17.7 7 Sur 21 Sur 0 -- -- 55
2019-10-27 16:00:00 19.2 10 Sur 24 Sur 0 -- -- 49
2019-10-27 15:00:00 19.7 10 Sur 31 Sur 0 -- -- 47
2019-10-27 14:00:00 20.2 22 Sur 32 Sur 0 -- -- 44
2019-10-27 13:00:00 19.2 16 Sudeste 37 Sur 0 -- -- 50
2019-10-27 12:00:00 18.8 13 Sudeste 27 Sur 0 -- -- 53
2019-10-27 11:00:00 17.6 10 Sur 15 Sudeste 0 -- -- 61
2019-10-27 10:00:00 14.5 11 Sur 15 Sur 0 -- -- 71
2019-10-27 09:00:00 11.3 6 Sur 12 Sur 0 -- -- 81
2019-10-27 08:00:00 10.4 8 Sur 13 Sudeste 0 -- -- 79
2019-10-27 07:00:00 9.8 8 Sur 15 Sudeste 0 -- -- 82
2019-10-27 06:00:00 9.8 6 Sur 15 Sur 0 -- -- 82
2019-10-27 05:00:00 9.3 10 Sur 14 Sur 0 -- -- 85
2019-10-27 04:00:00 8.4 9 Sudeste 15 Sur 0 -- -- 87
2019-10-27 03:00:00 9.4 10 Sur 14 Sur 0 -- -- 84
2019-10-27 02:00:00 10.1 9 Sur 14 Sur 0 -- -- 81
2019-10-27 01:00:00 9.8 5 Sur 15 Sur 0 -- -- 86
2019-10-27 00:00:00 11.1 10 Sur 16 Sudeste 0 -- -- 83
2019-10-26 23:00:00 12 6 Sur 12 Sudeste 0 -- -- 78
2019-10-26 22:00:00 12.9 8 Sur 12 Sur 0 -- -- 74
2019-10-26 21:00:00 14.4 4 Sur 13 Sur 0 -- -- 68
2019-10-26 20:00:00 16 8 Sudeste 19 Sur 0 -- -- 63
2019-10-26 19:00:00 18.7 13 Sur 27 Sur 0 -- -- 53
2019-10-26 18:00:00 20 15 Sudeste 29 Sudeste 0 -- -- 49
2019-10-26 17:00:00 20.5 15 Sudeste 32 Sur 0 -- -- 48
2019-10-26 16:00:00 20.4 18 Sur 35 Sur 0 -- -- 46
2019-10-26 15:00:00 19.9 22 Sur 35 Sur 0 -- -- 49
2019-10-26 14:00:00 19.2 22 Sur 41 Sur 0 -- -- 51
2019-10-26 13:00:00 18.5 22 Sur 33 Sur 0 -- -- 53
2019-10-26 12:00:00 17.6 17 Sur 32 Sur 0 -- -- 59
2019-10-26 11:00:00 15.9 14 Sur 26 Sur 0 -- -- 65
2019-10-26 10:00:00 12.9 10 Sur 18 Sur 0 -- -- 74
2019-10-26 09:00:00 12 9 Sur 21 Sudeste 0 -- -- 73
2019-10-26 08:00:00 13 14 Sur 23 Sur 0 -- -- 68
2019-10-26 07:00:00 12.6 11 Sur 22 Sudeste 0 -- -- 70
2019-10-26 06:00:00 13.2 9 Sur 24 Sur 0 -- -- 67
2019-10-26 05:00:00 13.3 14 Sur 22 Sudeste 0 -- -- 67
2019-10-26 04:00:00 12.8 12 Sur 21 Sur 0 -- -- 69
2019-10-26 03:00:00 12.5 13 Sur 20 Sudeste 0 -- -- 70
2019-10-26 02:00:00 12.9 10 Sur 17 Sudeste 0 -- -- 68
2019-10-26 01:00:00 12.7 11 Sudeste 19 Sur 0 -- -- 69
2019-10-26 00:00:00 12.2 12 Sur 19 Sudeste 0 -- -- 71
2019-10-25 23:00:00 12 7 Sur 13 Sur 0 -- -- 71
2019-10-25 22:00:00 12.4 8 Sur 14 Sur 0 -- -- 72
2019-10-25 21:00:00 13.5 10 Sur 14 Sur 0 -- -- 69
2019-10-25 20:00:00 14.9 7 Sur 15 Sur 0 -- -- 64
2019-10-25 19:00:00 17.9 9 Sur 26 Sudeste 0 -- -- 53
2019-10-25 18:00:00 19 11 Sur 26 Sudeste 0 -- -- 50
2019-10-25 17:00:00 19.3 13 Sur 32 Sur 0 -- -- 52
2019-10-25 16:00:00 19.1 22 Sur 32 Sur 0 -- -- 44
2019-10-25 15:00:00 18.5 17 Sur 28 Sur 0 -- -- 51
2019-10-25 14:00:00 18 14 Sur 25 Sur 0 -- -- 51
2019-10-25 13:00:00 17.1 14 Sur 24 Sudeste 0 -- -- 52
2019-10-25 12:00:00 11.9 3 Norte 7 Nordeste 0 -- -- 90
2019-10-25 11:00:00 10.2 2 Norte 10 Sudeste 0 -- -- 93
2019-10-25 10:00:00 8.8 5 Sur 12 Sur 0 -- -- 95
2019-10-25 09:00:00 7.3 5 Sur 11 Sur 0 -- -- 93
2019-10-25 08:00:00 7.2 2 Sur 10 Sur 0 -- -- 93
2019-10-25 07:00:00 6.7 5 Sudeste 13 Sudeste 0 -- -- 96
2019-10-25 06:00:00 6 6 Sudeste 11 Sur 0 -- -- 97
2019-10-25 05:00:00 6.3 8 Sudeste 12 Sudeste 0 -- -- 96
2019-10-25 04:00:00 7 4 Sudeste 6 Sudeste 0 -- -- 96
2019-10-25 03:00:00 8 2 Oeste 8 Sur 0 -- -- 97
2019-10-25 02:00:00 7.5 4 Sur 8 Sur 0 -- -- 96
2019-10-25 01:00:00 7.9 6 Sur 8 Sur 0 -- -- 94
2019-10-25 00:00:00 8.9 0 Calma 3 Nordeste 0 -- -- 92
2019-10-24 23:00:00 9.5 2 Nordeste 6 Nordeste 0 -- -- 90
2019-10-24 22:00:00 10.3 5 Este 9 Este 0 -- -- 88
2019-10-24 21:00:00 11.4 4 Norte 6 Norte 0 -- -- 86
2019-10-24 20:00:00 11.8 3 Noroeste 12 Norte 0 -- -- 83
2019-10-24 19:00:00 13.2 7 Norte 17 Norte 0 -- -- 78
2019-10-24 18:00:00 14.1 9 Norte 15 Nordeste 0 -- -- 75
2019-10-24 17:00:00 13.9 10 Norte 17 Norte 0 -- -- 76
2019-10-24 16:00:00 14.3 5 Norte 16 Noroeste 0 -- -- 74
2019-10-24 15:00:00 14.4 9 Oeste 17 Oeste 0 -- -- 73
2019-10-24 14:00:00 13 5 Oeste 12 Norte 0.2 -- -- 76
2019-10-24 13:00:00 11.7 3 Sudoeste 12 Oeste 0 -- -- 81
2019-10-24 12:00:00 9.9 7 Oeste 11 Noroeste 0 -- -- 94
2019-10-24 11:00:00 6.6 6 Sur 10 Sur 0 -- -- 99
2019-10-24 10:00:00 5.8 5 Sudeste 8 Sudeste 0 -- -- 98
2019-10-24 09:00:00 5.9 3 Norte 8 Noroeste 0 -- -- 98
2019-10-24 08:00:00 5.6 6 Noroeste 11 Noroeste 0 -- -- 98
2019-10-24 07:00:00 5.6 2 Noroeste 5 Oeste 0 -- -- 98
2019-10-24 06:00:00 6.2 0 Calma 6 Noroeste 0 -- -- 98
2019-10-24 05:00:00 6.6 6 Norte 18 Oeste 0 -- -- 98
2019-10-24 04:00:00 6.6 9 Oeste 16 Oeste -- -- -- 98
2019-10-24 03:00:00 6.9 12 Oeste 19 Oeste 0 -- -- 98
2019-10-24 02:00:00 7 8 Noroeste 21 Noroeste 0 -- -- 97
2019-10-24 01:00:00 7.6 10 Noroeste 16 Oeste 0 -- -- 97
2019-10-24 00:00:00 7.4 5 Noroeste 12 Oeste 0.2 -- -- 97
2019-10-23 23:00:00 7.2 4 Norte 12 Noroeste 0 -- -- 97
2019-10-23 22:00:00 7.2 8 Noroeste 18 Noroeste 0.2 -- -- 97
2019-10-23 21:00:00 7.2 12 Noroeste 25 Noroeste 0.2 -- -- 97
2019-10-23 20:00:00 7.6 20 Noroeste 28 Noroeste 0.2 -- -- 97
2019-10-23 19:00:00 8 14 Noroeste 20 Norte 0.4 -- -- 97
2019-10-23 18:00:00 8 14 Noroeste 28 Noroeste 1.4 -- -- 97
2019-10-23 17:00:00 7.9 21 Noroeste 37 Noroeste 1.4 -- -- 97
2019-10-23 16:00:00 8.1 22 Noroeste 34 Noroeste 0.8 -- -- 96
2019-10-23 15:00:00 8 24 Noroeste 37 Noroeste 0 -- -- 97
2019-10-23 14:00:00 8 17 Noroeste 28 Noroeste 0 -- -- 97
2019-10-23 13:00:00 7.8 17 Noroeste 28 Noroeste 0 -- -- 98
2019-10-23 12:00:00 7.4 18 Noroeste 29 Noroeste 0.2 -- -- 98
2019-10-23 11:00:00 6.9 18 Noroeste 30 Noroeste 1 -- -- 98
2019-10-23 10:00:00 6.6 17 Noroeste 25 Noroeste 1.6 -- -- 98
2019-10-23 09:00:00 6.6 14 Noroeste 19 Noroeste 0.8 -- -- 98
2019-10-23 08:00:00 6.6 11 Noroeste 20 Noroeste 0.8 -- -- 98
2019-10-23 07:00:00 6.7 13 Noroeste 19 Noroeste 0.4 -- -- 97
2019-10-23 06:00:00 6.7 13 Noroeste 20 Noroeste 0.4 -- -- 97
2019-10-23 05:00:00 6.7 18 Noroeste 24 Noroeste 0.8 -- -- 97
2019-10-23 04:00:00 6.7 10 Noroeste 15 Oeste -- -- -- 97
2019-10-23 03:00:00 6.8 7 Noroeste 11 Noroeste 1 -- -- 96
2019-10-23 02:00:00 7 4 Norte 11 Nordeste 0.2 -- -- 96
2019-10-23 01:00:00 7 8 Norte 13 Norte 0 -- -- 95
2019-10-23 00:00:00 7.2 7 Norte 14 Norte 0.2 -- -- 94
2019-10-22 23:00:00 7 8 Norte 13 Norte 0 -- -- 93
2019-10-22 22:00:00 7.4 6 Norte 10 Nordeste 0 -- -- 89
2019-10-22 21:00:00 7.3 6 Norte 14 Norte 0 -- -- 90
2019-10-22 20:00:00 7.7 15 Norte 45 Nordeste 0.4 -- -- 88
2019-10-22 19:00:00 11.1 18 Norte 35 Nordeste 0 -- -- 65
2019-10-22 18:00:00 12.1 20 Norte 34 Nordeste 0 -- -- 63
2019-10-22 17:00:00 11.7 20 Norte 39 Nordeste 0 -- -- 65
2019-10-22 16:00:00 11.6 19 Nordeste 36 Nordeste 0 -- -- 70
2019-10-22 15:00:00 10.4 17 Nordeste 32 Nordeste 0 -- -- 78
2019-10-22 14:00:00 8.6 17 Nordeste 27 Nordeste 0 -- -- 84
2019-10-22 13:00:00 7.7 13 Norte 25 Norte 0 -- -- 92
2019-10-22 12:00:00 5.9 17 Norte 23 Norte 0 -- -- 98
2019-10-22 11:00:00 3.4 7 Norte 15 Norte 0 -- -- 98
2019-10-22 10:00:00 2.2 8 Norte 16 Noroeste 0 -- -- 98
2019-10-22 09:00:00 1.6 9 Norte 14 Norte 0 -- -- 97
2019-10-22 08:00:00 1.6 5 Norte 8 Norte 0 -- -- 97
2019-10-22 07:00:00 1 4 Norte 5 Norte 0 -- -- 97
2019-10-22 06:00:00 0.7 6 Sur 13 Sur 0 -- -- 96
2019-10-22 05:00:00 1.3 8 Sur 13 Sur 0 -- -- 96
2019-10-22 04:00:00 2.2 8 Sur 10 Sur 0 -- -- 96
2019-10-22 03:00:00 3.1 6 Sur 11 Sur 0 -- -- 95
2019-10-22 02:00:00 3.5 5 Sur 12 Sudeste 0 -- -- 95
2019-10-22 01:00:00 4.3 5 Sur 10 Sudeste 0 -- -- 92
2019-10-22 00:00:00 5.2 0 Calma 4 Nordeste 0 -- -- 91
2019-10-21 23:00:00 5.6 4 Noroeste 9 Norte 0 -- -- 88
2019-10-21 22:00:00 6.2 4 Norte 9 Sur 0 -- -- 87
2019-10-21 21:00:00 7.7 5 Este 6 Este 0 -- -- 79
2019-10-21 20:00:00 8.4 0 Calma 4 Este 0 -- -- 83
2019-10-21 19:00:00 9 5 Sudeste 14 Sudeste 0 -- -- 84
2019-10-21 18:00:00 9.1 10 Sudeste 18 Sudeste 0 -- -- 79
2019-10-21 17:00:00 9.8 12 Sudeste 18 Sudeste 0 -- -- 80
2019-10-21 16:00:00 9.2 4 Sudeste 9 Sudoeste 0 -- -- 81
2019-10-21 15:00:00 9 3 Este 17 Sudoeste 1 -- -- 79
2019-10-21 14:00:00 10.5 4 Norte 17 Noroeste 0 -- -- 78
2019-10-21 13:00:00 11.4 7 Oeste 12 Oeste 0 -- -- 76
2019-10-21 12:00:00 8.8 3 Noroeste 8 Sudeste 0 -- -- 93
2019-10-21 11:00:00 5.9 6 Sudeste 10 Sur 0 -- -- 99
2019-10-21 10:00:00 2 9 Sur 13 Sur 0 -- -- 98
2019-10-21 09:00:00 1.2 11 Sur 14 Sur 0 -- -- 97
2019-10-21 08:00:00 1.5 9 Sur 12 Sudeste 0 -- -- 97
2019-10-21 07:00:00 1.2 10 Sur 14 Sur 0 -- -- 97
2019-10-21 06:00:00 2.1 9 Sur 11 Sur 0 -- -- 96
2019-10-21 05:00:00 2.4 7 Sur 13 Sur 0 -- -- 97
2019-10-21 04:00:00 3.2 10 Sur 14 Sudeste 0 -- -- 96
2019-10-21 03:00:00 3.9 9 Sur 11 Sur 0 -- -- 94
2019-10-21 02:00:00 5 2 Sudoeste 9 Sur 0 -- -- 92
2019-10-21 01:00:00 6.3 3 Noroeste 9 Noroeste 0 -- -- 89
2019-10-21 00:00:00 6.7 4 Norte 9 Noroeste 0 -- -- 88
2019-10-20 23:00:00 7 5 Noroeste 15 Norte 0 -- -- 86
2019-10-20 22:00:00 8 12 Noroeste 22 Oeste 0 -- -- 80
2019-10-20 21:00:00 8.1 13 Oeste 20 Oeste 0 -- -- 81
2019-10-20 20:00:00 8.4 12 Oeste 17 Oeste 0 -- -- 81
2019-10-20 19:00:00 9.4 4 Noroeste 8 Noroeste 0 -- -- 84
2019-10-20 18:00:00 7.7 3 Norte 33 Noroeste 3.4 -- -- 86
2019-10-20 17:00:00 11.6 10 Noroeste 18 Noroeste 0 -- -- 69
2019-10-20 16:00:00 11.2 4 Norte 16 Norte 0.2 -- -- 76
2019-10-20 15:00:00 10.6 10 Norte 24 Noroeste 0 -- -- 75
2019-10-20 14:00:00 9.7 13 Norte 29 Noroeste 0 -- -- 87
2019-10-20 13:00:00 8.5 20 Norte 33 Noroeste 0 -- -- 92
2019-10-20 12:00:00 7.7 20 Noroeste 31 Noroeste 0.8 -- -- 96
2019-10-20 11:00:00 7.1 20 Noroeste 27 Noroeste 0.2 -- -- 96
2019-10-20 10:00:00 6.6 16 Noroeste 26 Norte 0 -- -- 95
2019-10-20 09:00:00 6.3 14 Noroeste 23 Oeste 0.2 -- -- 95
2019-10-20 08:00:00 6.4 12 Noroeste 28 Oeste 0 -- -- 94
2019-10-20 07:00:00 6.4 13 Noroeste 32 Oeste 0 -- -- 95
2019-10-20 06:00:00 7.1 12 Noroeste 22 Oeste 0 -- -- 96
2019-10-20 05:00:00 7.4 15 Noroeste 31 Noroeste 0.4 -- -- 96
2019-10-20 04:00:00 7.5 12 Oeste 22 Oeste 0 -- -- 95
2019-10-20 03:00:00 7.5 15 Sudoeste 25 Sudoeste 0.2 -- -- 95
2019-10-20 02:00:00 6.9 6 Sudoeste 16 Sudoeste 0 -- -- 92
2019-10-20 01:00:00 7.6 14 Sudoeste 22 Oeste 0 -- -- 89
2019-10-20 00:00:00 8.1 5 Oeste 17 Oeste 0 -- -- 92
2019-10-19 23:00:00 8.5 10 Oeste 21 Oeste 0 -- -- 91
2019-10-19 22:00:00 9.5 16 Oeste 28 Oeste 0 -- -- 89
2019-10-19 21:00:00 11.2 18 Oeste 33 Sudoeste 0 -- -- 90
2019-10-19 20:00:00 12.6 19 Sudoeste 46 Sur 0.2 -- -- 93
2019-10-19 19:00:00 12.5 30 Sur 46 Sur 5 -- -- 95
2019-10-19 18:00:00 11.7 20 Sudeste 42 Sur 5.2 -- -- 95
2019-10-19 17:00:00 11.5 24 Sur 46 Sur 0.4 -- -- 94
2019-10-19 16:00:00 11.6 25 Sur 47 Sur 0.2 -- -- 94
2019-10-19 15:00:00 11.3 25 Sur 48 Sur 1.2 -- -- 94
2019-10-19 14:00:00 12.1 26 Sur 48 Sur 0 -- -- 87
2019-10-19 13:00:00 11.8 23 Sur 44 Sur 0 -- -- 88
2019-10-19 12:00:00 11.6 29 Sur 51 Sur 0 -- -- 86
2019-10-19 11:00:00 11 28 Sur 45 Sur 0 -- -- 91
2019-10-19 10:00:00 10.3 15 Sur 32 Sudeste 0 -- -- 93
2019-10-19 09:00:00 10.1 19 Sur 31 Sur 0 -- -- 93
2019-10-19 08:00:00 10.4 13 Sur 26 Sur 0 -- -- 89
2019-10-19 07:00:00 10 17 Sur 25 Sur 0 -- -- 88
2019-10-19 06:00:00 10.2 13 Sur 26 Sur 0 -- -- 87
2019-10-19 05:00:00 10.5 14 Sur 19 Sur 0 -- -- 87
2019-10-19 04:00:00 10.9 11 Sur 22 Sudoeste 0 -- -- 85
2019-10-19 03:00:00 11 15 Sur 22 Sur 0 -- -- 87
2019-10-19 02:00:00 10.9 9 Sur 24 Sur 0 -- -- 87
2019-10-19 01:00:00 10.9 13 Sur 20 Sur 0 -- -- 86
2019-10-19 00:00:00 11 14 Sur 19 Sur 0 -- -- 84
2019-10-18 23:00:00 11.2 10 Sur 16 Sur 0 -- -- 84
2019-10-18 22:00:00 12.1 7 Sur 9 Sur 0 -- -- 82
2019-10-18 21:00:00 12.5 6 Norte 9 Norte 0 -- -- 77
2019-10-18 20:00:00 13.3 7 Noroeste 14 Noroeste 0 -- -- 74
2019-10-18 19:00:00 14.7 8 Noroeste 13 Noroeste 0 -- -- 71
2019-10-18 18:00:00 16.2 4 Noroeste 20 Sudoeste 0 -- -- 67
2019-10-18 17:00:00 17.4 16 Sudoeste 24 Sudoeste 0 -- -- 67
2019-10-18 16:00:00 16.3 6 Oeste 17 Sudoeste 0 -- -- 74
2019-10-18 15:00:00 15 6 Noroeste 16 Noroeste 0 -- -- 79
2019-10-18 14:00:00 13.5 6 Oeste 11 Oeste 0 -- -- 85
2019-10-18 13:00:00 12.4 0 Calma 13 Norte 0 -- -- 89
2019-10-18 12:00:00 11.3 10 Noroeste 15 Noroeste 0 -- -- 93
2019-10-18 11:00:00 10.7 10 Noroeste 14 Noroeste 0 -- -- 96
2019-10-18 10:00:00 10.9 7 Noroeste 15 Noroeste 0 -- -- 97
2019-10-18 09:00:00 11.2 12 Norte 19 Norte 0.2 -- -- 97
2019-10-18 08:00:00 12.2 10 Norte 15 Noroeste 0 -- -- 96
2019-10-18 07:00:00 14.2 0 Calma 14 Sur 0 -- -- 95
2019-10-18 06:00:00 14.4 9 Sur 20 Sur 0 -- -- 95
2019-10-18 05:00:00 15.1 14 Sudoeste 23 Sudoeste 0 -- -- 96
2019-10-18 04:00:00 15.1 14 Sudoeste 28 Sur 0.2 -- -- 96
2019-10-18 03:00:00 15.2 20 Sur 29 Sur 0.2 -- -- 96
2019-10-18 02:00:00 15.2 20 Sur 30 Sur 0 -- -- 96
2019-10-18 01:00:00 15.1 15 Sur 32 Sur 0 -- -- 95
2019-10-18 00:00:00 15.2 19 Sur 29 Sur 0 -- -- 95